Time;durP1;ratioP1;P1;durP2;ratioP2;P2;SDS_P1;SDS_P2;PMS_P1;PMS_P2;Temp;Humidity;BMP_temperature;BMP_pressure;BME280_temperature;BME280_humidity;BME280_pressure;Samples;Min_cycle;Max_cycle;Signal;HPM_P1;HPM_P2
2024/04/04 00:00:44;;;;;;;1.35;0.50;;;14.80;99.90;;;;;;4229465;28;20466;-52
2024/04/04 00:02:45;;;;;;;4.80;1.35;;;14.90;99.90;;;;;;4234787;27;20039;-52
2024/04/04 00:04:46;;;;;;;5.10;0.60;;;14.80;99.90;;;;;;4247396;27;20047;-52
2024/04/04 00:06:47;;;;;;;2.25;0.60;;;14.80;99.90;;;;;;4247097;27;20439;-53
2024/04/04 00:08:48;;;;;;;1.48;0.65;;;14.80;99.90;;;;;;4247237;27;20043;-53
2024/04/04 00:10:52;;;;;;;4.75;2.05;;;14.80;99.90;;;;;;4247346;27;20492;-56
2024/04/04 00:12:54;;;;;;;3.10;0.80;;;14.80;99.90;;;;;;4247215;27;20047;-53
2024/04/04 00:14:55;;;;;;;4.07;1.25;;;14.80;99.90;;;;;;4246858;27;20480;-52
2024/04/04 00:16:56;;;;;;;3.38;1.00;;;14.80;99.90;;;;;;4247096;27;20044;-51
2024/04/04 00:18:58;;;;;;;2.95;1.50;;;14.90;99.90;;;;;;4247116;27;20112;-53
2024/04/04 00:20:59;;;;;;;2.33;0.98;;;14.90;99.90;;;;;;4247116;27;20043;-52
2024/04/04 00:23:00;;;;;;;1.42;0.70;;;14.90;99.90;;;;;;4246391;27;20054;-53
2024/04/04 00:25:02;;;;;;;4.68;0.60;;;14.90;99.90;;;;;;4247070;27;20080;-55
2024/04/04 00:27:06;;;;;;;2.13;0.60;;;14.80;99.90;;;;;;4247131;27;20047;-52
2024/04/04 00:29:07;;;;;;;2.67;0.63;;;14.80;99.90;;;;;;4247045;27;20051;-52
2024/04/04 00:31:09;;;;;;;3.45;0.93;;;14.80;99.90;;;;;;4247095;27;20968;-52
2024/04/04 00:33:10;;;;;;;7.13;2.00;;;14.90;99.90;;;;;;4246726;27;20050;-54
2024/04/04 00:35:12;;;;;;;4.22;0.95;;;14.90;99.90;;;;;;4246667;27;20171;-56
2024/04/04 00:37:13;;;;;;;3.42;0.93;;;14.90;99.90;;;;;;4246516;27;20047;-52
2024/04/04 00:39:14;;;;;;;2.55;1.08;;;14.90;99.90;;;;;;4229525;28;20046;-53
2024/04/04 00:41:15;;;;;;;5.82;1.75;;;14.90;99.90;;;;;;4229722;28;20043;-52
2024/04/04 00:43:18;;;;;;;0.40;0.40;;;14.90;99.90;;;;;;4246742;27;20047;-55
2024/04/04 00:45:20;;;;;;;2.83;0.60;;;14.90;99.90;;;;;;4246615;27;20051;-54
2024/04/04 00:47:21;;;;;;;0.82;0.30;;;14.90;99.90;;;;;;4246818;27;20131;-56
2024/04/04 00:49:23;;;;;;;2.25;1.27;;;14.90;99.90;;;;;;4230002;28;20048;-51
2024/04/04 00:51:25;;;;;;;3.00;0.57;;;14.90;99.90;;;;;;4246375;27;20051;-52
2024/04/04 00:53:27;;;;;;;3.20;0.70;;;14.90;99.90;;;;;;4263954;27;20047;-52
2024/04/04 00:55:28;;;;;;;4.07;1.02;;;14.90;99.90;;;;;;4245258;27;20442;-52
2024/04/04 00:57:29;;;;;;;4.28;1.33;;;14.80;99.90;;;;;;4229644;28;20408;-52
2024/04/04 00:59:32;;;;;;;1.02;0.35;;;14.80;99.90;;;;;;4229393;28;20155;-51
2024/04/04 01:01:33;;;;;;;2.47;1.23;;;14.80;99.90;;;;;;4229706;28;20055;-52
2024/04/04 01:03:34;;;;;;;3.00;1.15;;;14.80;99.90;;;;;;4223842;28;20044;-54
2024/04/04 01:05:36;;;;;;;0.70;0.40;;;14.90;99.90;;;;;;4229177;28;20044;-52
2024/04/04 01:07:37;;;;;;;0.90;0.50;;;14.90;99.90;;;;;;4246181;27;20043;-55
2024/04/04 01:09:38;;;;;;;2.97;0.60;;;14.90;99.90;;;;;;4246671;27;20050;-53
2024/04/04 01:11:39;;;;;;;1.90;0.70;;;14.90;99.90;;;;;;4246640;27;20047;-52
2024/04/04 01:13:41;;;;;;;0.60;0.40;;;14.90;99.90;;;;;;4246787;27;20103;-52
2024/04/04 01:15:43;;;;;;;1.75;1.05;;;14.90;99.90;;;;;;4246352;27;20087;-51
2024/04/04 01:17:44;;;;;;;5.88;1.23;;;14.90;99.90;;;;;;4246435;28;20043;-52
2024/04/04 01:19:46;;;;;;;1.63;0.35;;;14.90;99.90;;;;;;4245884;28;20051;-56
2024/04/04 01:21:47;;;;;;;2.60;1.40;;;14.90;99.90;;;;;;4245759;28;20071;-52
2024/04/04 01:23:49;;;;;;;4.35;2.05;;;14.90;99.90;;;;;;4246342;28;20047;-51
2024/04/04 01:25:50;;;;;;;2.35;1.23;;;14.90;99.90;;;;;;4263476;27;20049;-54
2024/04/04 01:27:52;;;;;;;1.30;0.73;;;14.90;99.90;;;;;;4246089;28;20055;-51
2024/04/04 01:29:53;;;;;;;1.85;0.80;;;14.80;99.90;;;;;;4246072;28;20043;-52
2024/04/04 01:31:54;;;;;;;3.03;0.40;;;14.70;99.90;;;;;;4229084;28;20052;-52
2024/04/04 01:33:55;;;;;;;0.98;0.40;;;14.70;99.90;;;;;;4245916;28;20594;-53
2024/04/04 01:35:56;;;;;;;1.25;0.50;;;14.60;99.90;;;;;;4229412;28;20080;-52
2024/04/04 01:37:57;;;;;;;2.92;1.27;;;14.70;99.90;;;;;;4246128;28;20047;-52
2024/04/04 01:40:00;;;;;;;2.25;1.65;;;14.60;99.90;;;;;;4246270;28;20126;-52
2024/04/04 01:42:01;;;;;;;2.25;0.90;;;14.50;99.90;;;;;;4229195;28;20058;-52
2024/04/04 01:44:03;;;;;;;3.08;0.70;;;14.60;99.90;;;;;;4246060;28;20050;-52
2024/04/04 01:46:04;;;;;;;3.42;0.80;;;14.60;99.90;;;;;;4246105;28;20207;-51
2024/04/04 01:48:06;;;;;;;1.75;0.50;;;14.50;99.90;;;;;;4245853;28;20047;-53
2024/04/04 01:50:07;;;;;;;7.30;1.23;;;14.50;99.90;;;;;;4246000;28;20051;-52
2024/04/04 01:52:08;;;;;;;1.17;0.40;;;14.50;99.90;;;;;;4245780;28;20070;-50
2024/04/04 01:54:10;;;;;;;2.08;1.00;;;14.50;99.90;;;;;;4246005;28;20078;-52
2024/04/04 01:56:13;;;;;;;1.50;1.33;;;14.50;99.90;;;;;;4238534;28;20050;-52
2024/04/04 01:58:14;;;;;;;1.13;0.65;;;14.40;99.90;;;;;;4229225;28;20040;-53
2024/04/04 02:00:16;;;;;;;3.33;1.35;;;14.50;99.90;;;;;;4229203;28;20043;-52
2024/04/04 02:02:17;;;;;;;0.95;0.52;;;14.50;99.90;;;;;;4229607;28;20048;-52
2024/04/04 02:04:18;;;;;;;1.08;0.98;;;14.60;99.90;;;;;;4245498;28;20051;-52
2024/04/04 02:06:19;;;;;;;2.88;0.52;;;14.60;99.90;;;;;;4245750;28;20086;-52
2024/04/04 02:08:21;;;;;;;2.78;0.77;;;14.60;99.90;;;;;;4246008;28;20576;-53
2024/04/04 02:10:22;;;;;;;1.67;1.05;;;14.60;99.90;;;;;;4245995;28;20055;-53
2024/04/04 02:12:24;;;;;;;0.80;0.50;;;14.50;99.90;;;;;;4245942;28;20046;-51
2024/04/04 02:14:26;;;;;;;15.65;1.30;;;14.60;99.90;;;;;;4246098;28;20047;-58
2024/04/04 02:16:29;;;;;;;3.58;0.95;;;14.50;99.90;;;;;;4245875;28;20045;-52
2024/04/04 02:18:30;;;;;;;1.77;0.50;;;14.60;99.90;;;;;;4245793;28;20043;-52
2024/04/04 02:20:32;;;;;;;0.90;0.73;;;14.60;99.90;;;;;;4245964;28;20051;-52
2024/04/04 02:22:33;;;;;;;0.82;0.40;;;14.60;99.90;;;;;;4245460;28;20055;-50
2024/04/04 02:24:34;;;;;;;1.52;0.82;;;14.60;99.90;;;;;;4247767;27;20096;-51
2024/04/04 02:26:35;;;;;;;0.40;0.20;;;14.60;99.90;;;;;;4232024;28;20561;-51
2024/04/04 02:28:38;;;;;;;2.50;0.60;;;14.50;99.90;;;;;;4248888;27;20040;-51
2024/04/04 02:30:40;;;;;;;1.45;0.43;;;14.50;99.90;;;;;;4248711;27;20047;-52
2024/04/04 02:32:41;;;;;;;1.10;0.30;;;14.50;99.90;;;;;;4231333;28;20043;-56
2024/04/04 02:34:42;;;;;;;2.67;1.67;;;14.50;99.90;;;;;;4248960;27;20430;-52
2024/04/04 02:36:44;;;;;;;3.22;0.65;;;14.50;99.90;;;;;;4248771;27;20072;-52
2024/04/04 02:38:45;;;;;;;0.77;0.45;;;14.50;99.90;;;;;;4248657;27;20062;-52
2024/04/04 02:40:47;;;;;;;0.73;0.20;;;14.50;99.90;;;;;;4248852;27;20043;-53
2024/04/04 02:42:48;;;;;;;1.83;1.00;;;14.50;99.90;;;;;;4248877;27;20058;-52
2024/04/04 02:44:51;;;;;;;0.73;0.32;;;14.40;99.90;;;;;;4248459;27;20050;-54
2024/04/04 02:46:52;;;;;;;0.70;0.40;;;14.40;99.90;;;;;;4248060;27;20047;-51
2024/04/04 02:48:53;;;;;;;1.80;0.70;;;14.30;99.90;;;;;;4248560;27;20051;-52
2024/04/04 02:50:55;;;;;;;0.70;0.20;;;14.40;99.90;;;;;;4248709;27;20054;-53
2024/04/04 02:52:56;;;;;;;1.05;0.88;;;14.40;99.90;;;;;;4248727;27;20053;-51
2024/04/04 02:54:57;;;;;;;0.98;0.10;;;14.40;99.90;;;;;;4248341;27;20489;-53
2024/04/04 02:56:58;;;;;;;4.43;0.75;;;14.30;99.90;;;;;;4233959;27;20047;-52
2024/04/04 02:59:00;;;;;;;1.48;0.60;;;14.30;99.90;;;;;;4231244;28;20077;-53
2024/04/04 03:01:04;;;;;;;1.13;0.30;;;14.40;99.90;;;;;;4230897;28;20052;-54
2024/04/04 03:03:05;;;;;;;2.58;0.50;;;14.40;99.90;;;;;;4238342;27;20051;-52
2024/04/04 03:05:07;;;;;;;3.22;0.73;;;14.40;99.90;;;;;;4215515;28;20074;-51
2024/04/04 03:07:08;;;;;;;1.42;0.50;;;14.30;99.90;;;;;;4231034;28;20040;-50
2024/04/04 03:09:11;;;;;;;3.78;0.60;;;14.30;99.90;;;;;;4231243;28;20047;-51
2024/04/04 03:11:12;;;;;;;0.50;0.30;;;14.20;99.90;;;;;;4214028;28;20109;-54
2024/04/04 03:13:13;;;;;;;1.88;0.95;;;14.20;99.90;;;;;;4214273;28;20043;-51
2024/04/04 03:15:14;;;;;;;0.65;0.40;;;14.10;99.90;;;;;;4230757;28;20090;-51
2024/04/04 03:17:17;;;;;;;1.67;0.40;;;14.20;99.90;;;;;;4214557;28;20044;-52
2024/04/04 03:19:18;;;;;;;0.95;0.60;;;14.20;99.90;;;;;;4231125;28;20052;-52
2024/04/04 03:21:19;;;;;;;0.43;0.20;;;14.20;99.90;;;;;;4231123;28;20046;-51
2024/04/04 03:23:20;;;;;;;0.63;0.20;;;14.20;99.90;;;;;;4245465;27;20066;-52
2024/04/04 03:25:21;;;;;;;0.43;0.20;;;14.10;99.90;;;;;;4231127;28;20062;-55
2024/04/04 03:27:23;;;;;;;2.60;0.40;;;14.10;99.90;;;;;;4248699;27;20118;-52
2024/04/04 03:29:24;;;;;;;14.00;1.75;;;14.10;99.90;;;;;;4248274;27;20420;-52
2024/04/04 03:31:25;;;;;;;2.03;0.50;;;14.10;99.90;;;;;;4248187;27;20055;-52
2024/04/04 03:33:28;;;;;;;12.30;1.30;;;14.00;99.90;;;;;;4247877;27;20039;-52
2024/04/04 03:35:29;;;;;;;0.25;0.15;;;14.00;99.90;;;;;;4246799;27;20106;-52
2024/04/04 03:37:31;;;;;;;0.68;0.68;;;14.00;99.90;;;;;;4247925;27;20039;-51
2024/04/04 03:39:32;;;;;;;2.97;0.30;;;14.00;99.90;;;;;;4247732;27;20043;-53
2024/04/04 03:41:33;;;;;;;1.10;0.20;;;14.00;99.90;;;;;;4247719;27;20116;-55
2024/04/04 03:43:34;;;;;;;3.25;1.83;;;14.00;99.90;;;;;;4230515;28;20123;-51
2024/04/04 03:45:39;;;;;;;0.47;0.30;;;14.00;99.90;;;;;;4247719;27;20061;-52
2024/04/04 03:47:40;;;;;;;11.32;1.98;;;13.90;99.90;;;;;;4248676;27;20472;-55
2024/04/04 03:49:43;;;;;;;0.85;0.85;;;13.90;99.90;;;;;;4248329;27;20149;-51
2024/04/04 03:51:44;;;;;;;1.10;0.68;;;14.00;99.90;;;;;;4247836;27;20096;-52
2024/04/04 03:53:46;;;;;;;1.05;0.35;;;13.90;99.90;;;;;;4247476;27;20043;-53
2024/04/04 03:55:47;;;;;;;3.90;0.98;;;13.90;99.90;;;;;;4243288;27;20089;-52
2024/04/04 03:57:48;;;;;;;0.17;0.17;;;13.90;99.90;;;;;;4230320;28;20055;-55
2024/04/04 03:59:49;;;;;;;1.35;0.85;;;13.90;99.90;;;;;;4230677;28;20097;-57
2024/04/04 04:01:52;;;;;;;0.73;0.50;;;13.90;99.90;;;;;;4230828;28;20097;-53
2024/04/04 04:03:53;;;;;;;2.28;0.93;;;13.90;99.90;;;;;;4244838;27;20035;-54
2024/04/04 04:05:56;;;;;;;0.85;0.47;;;13.90;99.90;;;;;;4247946;27;20513;-53
2024/04/04 04:07:57;;;;;;;0.63;0.40;;;13.90;99.90;;;;;;4247802;27;20047;-54
2024/04/04 04:09:58;;;;;;;0.45;0.30;;;13.80;99.90;;;;;;4248365;27;20047;-54
2024/04/04 04:11:59;;;;;;;0.15;0.10;;;13.90;99.90;;;;;;4247714;27;20044;-55
2024/04/04 04:14:00;;;;;;;0.90;0.20;;;13.80;99.90;;;;;;4247563;27;20530;-56
2024/04/04 04:16:02;;;;;;;0.17;0.17;;;13.80;99.90;;;;;;4247924;27;20043;-55
2024/04/04 04:18:03;;;;;;;0.30;0.30;;;13.80;99.90;;;;;;4247828;27;20064;-54
2024/04/04 04:21:17;;;;;;;0.30;0.20;;;13.80;99.90;;;;;;4247752;27;20099;-57
2024/04/04 04:22:28;;;;;;;0.30;0.10;;;13.80;99.90;;;;;;4247273;27;20044;-54
2024/04/04 04:24:29;;;;;;;1.02;0.80;;;13.80;99.90;;;;;;4247485;27;20047;-51
2024/04/04 04:26:30;;;;;;;0.10;0.10;;;13.80;99.90;;;;;;4247845;27;20120;-53
2024/04/04 04:28:31;;;;;;;0.30;0.30;;;13.80;99.90;;;;;;4230721;28;20047;-54
2024/04/04 04:30:33;;;;;;;0.25;0.20;;;13.80;99.90;;;;;;4248148;27;20050;-58
2024/04/04 04:32:34;;;;;;;0.30;0.20;;;13.80;99.90;;;;;;4247599;27;20058;-55
2024/04/04 04:34:35;;;;;;;2.05;1.13;;;13.80;99.90;;;;;;4248307;27;20047;-55
2024/04/04 04:36:39;;;;;;;0.08;0.08;;;13.80;99.90;;;;;;4247493;27;20050;-53
2024/04/04 04:38:42;;;;;;;1.20;0.28;;;13.80;99.90;;;;;;4247127;27;20043;-54
2024/04/04 04:40:43;;;;;;;3.00;0.73;;;13.80;99.90;;;;;;4247051;27;20361;-52
2024/04/04 04:42:45;;;;;;;1.38;0.30;;;13.80;99.90;;;;;;4246398;27;20062;-51
2024/04/04 04:44:46;;;;;;;3.55;0.28;;;13.80;99.90;;;;;;4246944;27;20523;-55
2024/04/04 04:46:47;;;;;;;1.35;0.90;;;13.70;99.90;;;;;;4263660;27;20046;-52
2024/04/04 04:48:48;;;;;;;0.63;0.52;;;13.70;99.90;;;;;;4230008;28;20047;-53
2024/04/04 04:50:49;;;;;;;0.20;0.20;;;13.70;99.90;;;;;;4247217;27;20051;-52
2024/04/04 04:52:50;;;;;;;0.20;0.20;;;13.70;99.90;;;;;;4246722;27;20043;-51
2024/04/04 04:54:53;;;;;;;0.20;0.10;;;13.80;99.90;;;;;;4246949;27;20074;-53
2024/04/04 04:56:54;;;;;;;1.13;0.20;;;13.70;99.90;;;;;;4216265;28;20054;-54
2024/04/04 04:58:55;;;;;;;0.63;0.10;;;13.70;99.90;;;;;;4229502;28;20066;-53
2024/04/04 05:00:57;;;;;;;0.10;0.10;;;13.70;99.90;;;;;;4229513;28;20047;-52
2024/04/04 05:02:58;;;;;;;0.20;0.10;;;13.70;99.90;;;;;;4235699;27;20042;-52
2024/04/04 05:05:12;;;;;;;1.00;0.20;;;13.60;99.90;;;;;;4246461;27;20405;-56
2024/04/04 05:07:13;;;;;;;0.60;0.45;;;13.60;99.90;;;;;;4246950;27;20442;-55
2024/04/04 05:09:15;;;;;;;0.43;0.28;;;13.60;99.90;;;;;;4246996;27;20070;-56
2024/04/04 05:11:17;;;;;;;0.40;0.20;;;13.60;99.90;;;;;;4246049;27;20051;-53
2024/04/04 05:13:19;;;;;;;0.65;0.20;;;13.60;99.90;;;;;;4246445;27;20046;-52
2024/04/04 05:15:20;;;;;;;0.20;0.10;;;13.60;99.90;;;;;;4246495;27;20039;-52
2024/04/04 05:17:21;;;;;;;0.13;0.10;;;13.40;99.90;;;;;;4229668;28;20096;-61
2024/04/04 05:19:22;;;;;;;0.10;0.08;;;13.20;99.90;;;;;;4246657;28;20054;-52
2024/04/04 05:21:23;;;;;;;0.10;0.10;;;13.00;99.90;;;;;;4246273;28;20092;-52
2024/04/04 05:23:24;;;;;;;0.00;0.00;;;12.90;99.90;;;;;;4245988;28;20054;-55
2024/04/04 05:25:27;;;;;;;0.20;0.10;;;12.90;99.90;;;;;;4246190;28;20053;-54
2024/04/04 05:27:29;;;;;;;0.25;0.10;;;12.70;99.90;;;;;;4245651;28;20047;-54
2024/04/04 05:29:30;;;;;;;0.08;0.08;;;12.70;99.90;;;;;;4246105;28;20048;-54
2024/04/04 05:31:31;;;;;;;0.10;0.10;;;12.50;99.90;;;;;;4246301;28;20105;-54
2024/04/04 05:33:33;;;;;;;0.88;0.20;;;12.50;99.90;;;;;;4246139;28;20061;-54
2024/04/04 05:35:34;;;;;;;7.43;1.10;;;12.50;99.90;;;;;;4246173;28;20046;-54
2024/04/04 05:37:36;;;;;;;0.35;0.05;;;12.60;99.90;;;;;;4246268;28;20043;-54
2024/04/04 05:39:37;;;;;;;1.25;0.80;;;12.50;99.90;;;;;;4246397;28;20039;-64
2024/04/04 05:41:41;;;;;;;0.25;0.10;;;12.40;99.90;;;;;;4246344;28;20047;-53
2024/04/04 05:43:43;;;;;;;0.30;0.30;;;12.50;99.90;;;;;;4246103;28;20516;-54
2024/04/04 05:45:45;;;;;;;0.20;0.10;;;12.50;99.90;;;;;;4246031;28;20055;-60
2024/04/04 05:47:46;;;;;;;0.20;0.08;;;12.60;99.90;;;;;;4245827;28;20120;-54
2024/04/04 05:49:47;;;;;;;0.47;0.17;;;12.60;99.90;;;;;;4245950;28;20048;-56
2024/04/04 05:51:48;;;;;;;7.03;0.63;;;12.60;99.90;;;;;;4246429;28;20046;-54
2024/04/04 05:53:50;;;;;;;0.20;0.20;;;12.60;99.90;;;;;;4245941;28;20177;-60
2024/04/04 05:55:51;;;;;;;0.00;0.00;;;12.60;99.90;;;;;;4245820;28;20043;-55
2024/04/04 05:57:52;;;;;;;0.60;0.30;;;12.70;99.90;;;;;;4246049;27;20050;-54
2024/04/04 05:59:55;;;;;;;0.10;0.00;;;12.70;99.90;;;;;;4248789;27;20055;-54
2024/04/04 06:01:56;;;;;;;0.30;0.00;;;12.80;99.90;;;;;;4249762;27;20549;-54
2024/04/04 06:03:57;;;;;;;0.13;0.10;;;12.80;99.90;;;;;;4243679;27;20040;-55
2024/04/04 06:06:01;;;;;;;0.28;0.20;;;12.80;99.90;;;;;;4232583;28;20416;-54
2024/04/04 06:08:02;;;;;;;0.20;0.10;;;12.80;99.90;;;;;;4232642;28;20044;-54
2024/04/04 06:10:05;;;;;;;1.90;0.35;;;12.80;99.90;;;;;;4231720;28;20069;-55
2024/04/04 06:12:06;;;;;;;0.50;0.35;;;12.80;99.90;;;;;;4232299;28;20054;-54
2024/04/04 06:14:08;;;;;;;0.10;0.05;;;12.90;99.90;;;;;;4232405;28;20101;-53
2024/04/04 06:16:10;;;;;;;0.00;0.00;;;13.00;99.90;;;;;;4232101;28;20054;-56
2024/04/04 06:18:11;;;;;;;0.25;0.25;;;13.00;99.90;;;;;;4215143;28;20055;-55
2024/04/04 06:20:13;;;;;;;0.10;0.10;;;13.00;99.90;;;;;;4232082;28;20055;-55
2024/04/04 06:22:14;;;;;;;0.20;0.10;;;13.00;99.90;;;;;;4236565;27;20047;-56
2024/04/04 06:24:15;;;;;;;0.50;0.40;;;13.00;99.90;;;;;;4231844;28;20051;-53
2024/04/04 06:26:17;;;;;;;0.10;0.10;;;13.00;99.90;;;;;;4249784;27;20043;-55
2024/04/04 06:28:18;;;;;;;0.43;0.43;;;13.10;99.90;;;;;;4249964;27;20100;-54
2024/04/04 06:30:19;;;;;;;1.55;0.20;;;13.10;99.90;;;;;;4248908;27;20501;-54
2024/04/04 06:32:22;;;;;;;0.00;0.00;;;13.00;99.90;;;;;;4248651;27;20116;-54
2024/04/04 06:34:23;;;;;;;0.10;0.10;;;13.10;99.90;;;;;;4232086;28;20432;-53
2024/04/04 06:36:24;;;;;;;0.32;0.10;;;13.00;99.90;;;;;;4248624;27;20043;-55
2024/04/04 06:38:25;;;;;;;0.10;0.10;;;13.10;99.90;;;;;;4248525;27;20080;-54
2024/04/04 06:40:29;;;;;;;0.30;0.00;;;13.10;99.90;;;;;;4248594;27;20051;-54
2024/04/04 06:42:30;;;;;;;5.63;1.10;;;13.10;99.90;;;;;;4248738;27;20047;-54
2024/04/04 06:44:32;;;;;;;0.00;0.00;;;13.10;99.90;;;;;;4248750;27;20047;-55
2024/04/04 06:46:33;;;;;;;2.05;0.17;;;13.10;99.90;;;;;;4214544;28;20516;-55
2024/04/04 06:48:40;;;;;;;0.00;0.00;;;13.20;99.90;;;;;;4249084;27;20058;-54
2024/04/04 06:50:41;;;;;;;0.10;0.10;;;13.20;99.90;;;;;;4249216;27;20050;-60
2024/04/04 06:52:43;;;;;;;0.05;0.05;;;13.20;99.90;;;;;;4248292;27;20051;-58
2024/04/04 06:54:44;;;;;;;0.60;0.20;;;13.20;99.90;;;;;;4248647;27;20103;-53
2024/04/04 06:56:45;;;;;;;0.30;0.10;;;13.20;99.90;;;;;;4235977;27;20047;-53
2024/04/04 06:58:46;;;;;;;0.25;0.22;;;13.20;99.90;;;;;;4231284;28;20065;-52
2024/04/04 07:00:55;;;;;;;0.70;0.10;;;13.20;99.90;;;;;;4231259;28;20040;-51
2024/04/04 07:02:56;;;;;;;0.17;0.10;;;13.10;99.90;;;;;;4237411;27;20043;-50
2024/04/04 07:04:59;;;;;;;0.15;0.10;;;13.20;99.90;;;;;;4248027;27;20055;-55
2024/04/04 07:07:00;;;;;;;0.10;0.10;;;13.10;99.90;;;;;;4248316;27;20046;-51
2024/04/04 07:09:02;;;;;;;1.42;0.20;;;13.20;99.90;;;;;;4248068;27;20051;-52
2024/04/04 07:11:06;;;;;;;0.10;0.10;;;13.10;99.90;;;;;;4248560;27;20059;-53
2024/04/04 07:13:07;;;;;;;0.00;0.00;;;13.20;99.90;;;;;;4248910;27;20047;-52
2024/04/04 07:15:08;;;;;;;1.55;1.02;;;13.30;99.90;;;;;;4248078;27;20069;-52
2024/04/04 07:17:09;;;;;;;0.10;0.10;;;13.20;99.90;;;;;;4248528;27;20051;-62
2024/04/04 07:19:10;;;;;;;0.20;0.10;;;13.20;99.90;;;;;;4248112;27;20047;-55
2024/04/04 07:21:13;;;;;;;0.10;0.10;;;13.30;99.90;;;;;;4248299;27;20118;-51
2024/04/04 07:23:14;;;;;;;0.10;0.10;;;13.20;99.90;;;;;;4247717;27;20060;-52
2024/04/04 07:25:16;;;;;;;0.65;0.28;;;13.20;99.90;;;;;;4248362;27;20510;-53
2024/04/04 07:27:18;;;;;;;3.47;0.85;;;13.20;99.90;;;;;;4247810;27;20043;-53
2024/04/04 07:29:19;;;;;;;0.80;0.20;;;13.20;99.90;;;;;;4247750;27;20507;-52
2024/04/04 07:31:20;;;;;;;0.40;0.13;;;13.30;99.90;;;;;;4247871;27;20465;-53
2024/04/04 07:33:21;;;;;;;0.28;0.20;;;13.40;99.90;;;;;;4242740;27;20069;-55
2024/04/04 07:35:22;;;;;;;0.73;0.40;;;13.60;99.90;;;;;;4239410;27;20043;-54
2024/04/04 07:37:25;;;;;;;0.40;0.13;;;13.80;99.90;;;;;;4230957;28;20149;-52
2024/04/04 07:39:26;;;;;;;0.40;0.20;;;13.80;99.90;;;;;;4239666;27;20187;-61
2024/04/04 07:41:28;;;;;;;0.65;0.55;;;13.90;99.90;;;;;;4247700;27;20043;-52
2024/04/04 07:43:29;;;;;;;0.15;0.15;;;13.90;99.90;;;;;;4247932;27;20438;-53
2024/04/04 07:45:30;;;;;;;0.20;0.20;;;14.00;99.90;;;;;;4247584;27;20047;-51
2024/04/04 07:47:31;;;;;;;0.28;0.20;;;13.80;99.90;;;;;;4247328;27;20057;-53
2024/04/04 07:49:33;;;;;;;3.33;1.70;;;13.80;99.90;;;;;;4246957;27;20398;-56
2024/04/04 07:51:35;;;;;;;2.17;0.38;;;13.90;99.90;;;;;;4238434;27;20054;-54
2024/04/04 07:53:37;;;;;;;0.40;0.10;;;13.80;99.90;;;;;;4213665;28;20047;-53
2024/04/04 07:55:39;;;;;;;0.30;0.10;;;13.90;99.90;;;;;;4230341;28;20072;-54
2024/04/04 07:57:40;;;;;;;1.27;0.20;;;13.80;99.90;;;;;;4235986;27;20051;-52
2024/04/04 07:59:43;;;;;;;0.52;0.22;;;13.80;99.90;;;;;;4244633;27;20043;-52
2024/04/04 08:01:44;;;;;;;0.00;0.00;;;13.70;99.90;;;;;;4246322;27;20043;-53
2024/04/04 08:03:47;;;;;;;0.75;0.10;;;13.70;99.90;;;;;;4241314;27;20041;-52
2024/04/04 08:05:48;;;;;;;0.17;0.17;;;13.70;99.90;;;;;;4244188;27;20043;-52
2024/04/04 08:07:49;;;;;;;0.22;0.13;;;13.60;99.90;;;;;;4241270;27;20043;-53
2024/04/04 08:09:55;;;;;;;0.35;0.00;;;13.60;99.90;;;;;;4247033;27;20046;-53
2024/04/04 08:11:56;;;;;;;0.10;0.10;;;13.50;99.90;;;;;;4247236;27;20043;-57
2024/04/04 08:13:57;;;;;;;0.30;0.10;;;13.70;99.90;;;;;;4238726;27;20112;-52
2024/04/04 08:15:58;;;;;;;0.05;0.00;;;13.60;99.90;;;;;;4233638;27;20156;-54
2024/04/04 08:17:59;;;;;;;0.30;0.20;;;13.50;99.90;;;;;;4214046;28;20434;-53
2024/04/04 08:20:02;;;;;;;0.17;0.10;;;13.60;99.90;;;;;;4242108;27;20532;-52
2024/04/04 08:22:07;;;;;;;0.55;0.47;;;13.60;99.90;;;;;;4228662;28;20047;-52
2024/04/04 08:24:09;;;;;;;12.02;0.50;;;13.60;99.90;;;;;;4221051;28;20055;-52
2024/04/04 08:26:12;;;;;;;1.35;0.20;;;13.60;99.90;;;;;;4210245;28;20083;-53
2024/04/04 08:28:13;;;;;;;0.30;0.30;;;13.50;99.90;;;;;;4228177;28;20423;-52
2024/04/04 08:30:14;;;;;;;0.10;0.10;;;13.40;99.90;;;;;;4228619;28;20035;-53
2024/04/04 08:32:16;;;;;;;0.60;0.35;;;13.40;99.90;;;;;;4222463;28;20036;-52
2024/04/04 08:34:19;;;;;;;0.20;0.08;;;13.50;99.90;;;;;;4222565;28;20048;-53
2024/04/04 08:36:20;;;;;;;0.15;0.00;;;13.20;99.90;;;;;;4229383;28;20057;-58
2024/04/04 08:38:21;;;;;;;0.13;0.05;;;12.90;99.90;;;;;;4229883;28;20105;-53
2024/04/04 08:40:24;;;;;;;0.10;0.00;;;12.90;99.90;;;;;;4229633;28;20438;-54
2024/04/04 08:42:28;;;;;;;0.00;0.00;;;12.90;99.90;;;;;;4230414;28;20046;-54
2024/04/04 08:44:29;;;;;;;1.03;0.57;;;12.80;99.90;;;;;;4229746;28;20046;-60
2024/04/04 08:46:32;;;;;;;0.10;0.10;;;12.70;99.90;;;;;;4229665;28;20047;-53
2024/04/04 08:48:33;;;;;;;0.20;0.10;;;12.70;99.90;;;;;;4229479;28;20542;-54
2024/04/04 08:50:35;;;;;;;0.55;0.10;;;12.70;99.90;;;;;;4229443;28;20066;-53
2024/04/04 08:52:36;;;;;;;0.30;0.10;;;12.70;99.90;;;;;;4229717;28;20569;-54
2024/04/04 08:54:37;;;;;;;0.20;0.20;;;12.80;99.90;;;;;;4229705;28;20104;-53
2024/04/04 08:56:39;;;;;;;0.08;0.08;;;12.80;99.90;;;;;;4228008;28;20478;-53
2024/04/04 08:58:41;;;;;;;0.10;0.10;;;12.80;99.90;;;;;;4229576;28;20043;-53
2024/04/04 09:00:43;;;;;;;0.28;0.20;;;13.00;99.90;;;;;;4230081;28;20108;-53
2024/04/04 09:02:44;;;;;;;2.72;1.52;;;13.40;99.90;;;;;;4225336;28;20051;-53
2024/04/04 09:04:45;;;;;;;0.20;0.10;;;13.40;99.90;;;;;;4205084;28;20048;-53
2024/04/04 09:06:48;;;;;;;0.90;0.15;;;13.40;99.90;;;;;;4220931;28;20044;-53
2024/04/04 09:08:53;;;;;;;1.92;0.40;;;13.60;99.90;;;;;;4203584;28;20036;-54
2024/04/04 09:10:59;;;;;;;0.30;0.22;;;13.70;99.90;;;;;;4218924;28;20036;-53
2024/04/04 09:13:01;;;;;;;0.30;0.30;;;13.90;99.90;;;;;;4219504;28;20059;-52
2024/04/04 09:15:04;;;;;;;0.28;0.28;;;13.90;99.90;;;;;;4222083;28;20275;-54
2024/04/04 09:17:06;;;;;;;0.10;0.10;;;14.00;99.90;;;;;;4224213;28;20048;-59
2024/04/04 09:19:11;;;;;;;0.60;0.20;;;14.10;99.90;;;;;;4222657;28;20418;-53
2024/04/04 09:21:12;;;;;;;0.93;0.35;;;14.20;99.90;;;;;;4218127;28;20108;-55
2024/04/04 09:23:13;;;;;;;0.45;0.10;;;14.40;99.90;;;;;;4220077;28;20106;-52
2024/04/04 09:25:15;;;;;;;0.30;0.15;;;14.20;99.90;;;;;;4220987;28;20077;-53
2024/04/04 09:27:20;;;;;;;1.15;0.85;;;14.20;99.90;;;;;;4222622;28;20401;-56
2024/04/04 09:29:22;;;;;;;0.50;0.20;;;14.30;99.90;;;;;;4229316;28;20532;-53
2024/04/04 09:31:27;;;;;;;0.73;0.40;;;14.40;99.90;;;;;;4225288;28;20046;-56
2024/04/04 09:33:29;;;;;;;0.20;0.20;;;14.50;99.90;;;;;;4218297;28;20051;-52
2024/04/04 09:35:32;;;;;;;0.43;0.25;;;14.70;99.90;;;;;;4226694;28;20052;-54
2024/04/04 09:37:34;;;;;;;0.20;0.13;;;14.90;99.90;;;;;;4226509;28;20481;-54
2024/04/04 09:39:35;;;;;;;0.20;0.10;;;15.00;99.90;;;;;;4228306;28;20051;-54
2024/04/04 09:41:38;;;;;;;0.00;0.00;;;15.10;99.90;;;;;;4225140;28;20542;-60
2024/04/04 09:43:39;;;;;;;0.70;0.50;;;15.20;99.90;;;;;;4207337;28;20109;-54
2024/04/04 09:45:43;;;;;;;0.15;0.10;;;15.20;99.90;;;;;;4230159;28;20051;-51
2024/04/04 09:47:47;;;;;;;2.13;0.77;;;15.20;99.90;;;;;;4225434;28;20055;-51
2024/04/04 09:49:49;;;;;;;0.50;0.50;;;15.20;99.90;;;;;;4214457;28;20055;-52
2024/04/04 09:51:53;;;;;;;1.70;0.20;;;15.20;99.90;;;;;;4221155;28;20042;-69
2024/04/04 09:53:57;;;;;;;0.50;0.32;;;15.10;99.90;;;;;;4225801;28;20070;-54
2024/04/04 09:55:58;;;;;;;0.32;0.32;;;15.20;99.90;;;;;;4225563;28;20047;-55
2024/04/04 09:57:59;;;;;;;0.45;0.28;;;15.20;99.90;;;;;;4224738;28;20055;-54
2024/04/04 10:00:14;;;;;;;1.17;0.25;;;15.20;99.90;;;;;;4231350;28;20393;-55
2024/04/04 10:02:15;;;;;;;0.73;0.20;;;15.30;99.90;;;;;;4225842;28;20039;-54
2024/04/04 10:04:19;;;;;;;0.20;0.15;;;15.40;99.90;;;;;;4229442;28;20043;-55
2024/04/04 10:06:29;;;;;;;0.10;0.10;;;15.50;99.90;;;;;;4230344;28;20496;-54
2024/04/04 10:08:30;;;;;;;0.75;0.20;;;15.50;99.90;;;;;;4227783;28;20562;-54
2024/04/04 10:10:32;;;;;;;0.47;0.20;;;15.60;99.90;;;;;;4231443;28;20377;-53
2024/04/04 10:12:42;;;;;;;0.75;0.20;;;15.70;99.90;;;;;;4226244;28;20044;-57
2024/04/04 10:14:49;;;;;;;0.22;0.20;;;15.70;99.90;;;;;;4225439;28;20048;-60
2024/04/04 10:16:55;;;;;;;0.55;0.20;;;15.80;99.90;;;;;;4229633;28;20051;-54
2024/04/04 10:18:56;;;;;;;0.40;0.17;;;15.90;99.90;;;;;;4225937;28;20054;-54
2024/04/04 10:20:59;;;;;;;1.65;1.00;;;16.10;99.90;;;;;;4230771;28;20044;-61
2024/04/04 10:23:01;;;;;;;0.65;0.10;;;16.20;99.90;;;;;;4226124;28;20055;-62
2024/04/04 10:25:03;;;;;;;0.63;0.40;;;16.40;99.90;;;;;;4221467;28;20527;-54
2024/04/04 10:27:05;;;;;;;1.75;1.10;;;16.30;99.90;;;;;;4210143;28;20044;-54
2024/04/04 10:29:12;;;;;;;0.10;0.10;;;16.30;99.90;;;;;;4222256;28;20043;-53
2024/04/04 10:31:14;;;;;;;1.33;0.40;;;16.30;99.90;;;;;;4228367;28;20146;-53
2024/04/04 10:33:16;;;;;;;0.68;0.30;;;16.40;99.90;;;;;;4229247;28;20551;-55